Welcome   Guest   [Login | Register] Sign in with Facebook Sign in with Google Sign in with Yahoo!
logoRelationalStocks.com
STOCK TICKER:
Vanda Pharmaceuticals Inc. - Common Stock   (ticker: VNDA)
Institutions's Holdings On The Stock
INSTITUTION/GURU    (click Current Holdings for holding history) Current Holdings
(link to holding history)
Previous
Holdings
Change Portfolio
Date
Palo Alto Investors, LLC 4,581,176 5,055,050 9% 2019-09-30
VANGUARD GROUP INC 4,308,706 3,610,341 19% 2019-09-30
ARMISTICE CAPITAL, LLC 3,548,000 3,158,000 12% 2019-09-30
Renaissance Technologies(Jim Simons) 3,208,340 2,798,050 15% 2019-09-30
STATE STREET CORP 2,865,837 3,000,816 4% 2019-09-30
MACQUARIE GROUP LTD 2,790,596 2,604,692 7% 2019-09-30
Invesco Ltd. 1,442,213 1,521,183 5% 2019-09-30
DIMENSIONAL FUND ADVISORS INC 1,120,916 967,404 16% 2019-09-30
GOLDMAN SACHS GROUP INC 979,117 653,687 50% 2019-09-30
PRUDENTIAL FINANCIAL INC 953,900 351,541 171% 2019-09-30
ACADIAN ASSET MANAGEMENT LLC 815,062 555,270 47% 2019-09-30
GEODE CAPITAL MANAGEMENT LLC 757,239 727,885 4% 2019-09-30
NORTHERN TRUST CORP 732,933 706,666 4% 2019-09-30
Nuveen Asset Management, LLC 451,831 239,375 89% 2019-09-30
Bank of New York Mellon CORP 605,789 595,073 2% 2019-09-30
SCHWAB CHARLES INVESTMENT MANAGEMENT INC 528,578 454,759 16% 2019-09-30
MORGAN STANLEY 524,569 607,086 14% 2019-09-30
PICTET ASSET MANAGEMENT LTD 519,900 476,000 9% 2019-09-30
FEDERATED INVESTORS INC /PA/ 466,907 233,227 100% 2019-09-30
ROTHSCHILD ASSET MANAGEMENT INC 462,908 467,212 1% 2019-09-30
MILLENNIUM MANAGEMENT LLC 461,975 0 New Buy 2019-09-30
Marshall Wace LLP 457,145 51,170 793% 2019-09-30
PANAGORA ASSET MANAGEMENT INC 441,179 470,122 6% 2019-09-30
PRINCIPAL FINANCIAL GROUP INC 420,188 424,779 1% 2019-09-30
CITADEL ADVISORS LLC (Kenneth C. Griffin) 413,441 51,467 703% 2019-09-30
FMR LLC 398,475 538,975 26% 2019-09-30
TWO SIGMA ADVISERS, LLC 377,900 420,100 10% 2019-09-30
AMERIPRISE FINANCIAL INC 359,836 383,491 6% 2019-09-30
D. E. Shaw & Co., INC. (David E. Shaw) 288,963 20,550 1,306% 2019-09-30
Candriam Luxembourg S.C.A. 271,000 271,000 No Change 2019-09-30
Squarepoint Ops LLC 258,316 83,103 211% 2019-09-30
Russell Investments Group, Ltd. 250,083 172,046 45% 2019-09-30
LOS ANGELES CAPITAL MANAGEMENT & EQUITY RESEARCH INC 233,414 35,462 558% 2019-09-30
TWO SIGMA INVESTMENTS LLC 230,539 442,002 48% 2019-09-30
BANK OF AMERICA CORP /DE/ 226,009 469,598 52% 2019-09-30
Point72 Asset Management, L.P. 223,375 0 New Buy 2019-09-30
BOGLE INVESTMENT MANAGEMENT L P /DE/ 215,936 0 New Buy 2019-09-30
AMERICAN CENTURY COMPANIES INC 210,540 0 New Buy 2019-09-30
J P MORGAN CHASE & CO 203,325 300,927 32% 2019-09-30
SEI INVESTMENTS CO 195,124 180,520 8% 2019-09-30
Susquehanna International Group, LLP 186,432 157,079 19% 2019-09-30
CADENCE CAPITAL MANAGEMENT LLC 172,512 179,202 4% 2019-09-30
RHUMBLINE ADVISERS 163,597 158,602 3% 2019-09-30
361 CAPITAL LLC 163,333 0 New Buy 2019-09-30
QS Investors, LLC 150,869 150,669 0% 2019-09-30
BOOTHBAY FUND MANAGEMENT, LLC 149,139 120,998 23% 2019-09-30
ClariVest Asset Management LLC 146,430 0 New Buy 2019-09-30
Rafferty Asset Management, LLC 139,456 145,484 4% 2019-09-30
Public Sector Pension Investment Board 135,356 116,800 16% 2019-09-30
TUDOR INVESTMENT CORP ET AL (Paul Tudor Jones) 133,417 132,941 0% 2019-09-30
Man Group plc 129,720 0 New Buy 2019-09-30
CITIGROUP INC 128,704 123,944 4% 2019-09-30
LEGAL & GENERAL GROUP PLC 127,870 124,505 3% 2019-09-30
PARAMETRIC PORTFOLIO ASSOCIATES 121,991 88,914 37% 2019-09-30
WELLS FARGO & CO/MN 115,054 106,396 8% 2019-09-30
Cubist Systematic Strategies, LLC 103,579 82,764 25% 2019-09-30
OXFORD ASSET MANAGEMENT 92,195 25,706 259% 2019-09-30
Swiss National Bank 89,500 88,100 2% 2019-09-30
CALIFORNIA STATE TEACHERS RETIREMENT SYSTEM 80,175 80,175 No Change 2019-09-30
Birchview Capital, LP 80,000 80,000 No Change 2019-09-30
Marshall Wace North America, L.P. 79,468 0 New Buy 2019-09-30
UBS Group AG 79,388 6,342 1,152% 2019-09-30
BANK OF MONTREAL /CAN/ 78,747 62,588 26% 2019-09-30
DEUTSCHE BANK AG 78,294 723,786 89% 2019-09-30
STATE OF WISCONSIN INVESTMENT BOARD 78,100 74,700 5% 2019-09-30
BARCLAYS PLC 77,276 90,617 15% 2019-09-30
ALLIANCEBERNSTEIN L.P. 74,953 86,903 14% 2019-09-30
CALIFORNIA PUBLIC EMPLOYEES RETIREMENT SYSTEM 68,476 56,614 21% 2019-09-30
PineBridge Investments Ltd 67,289 54,840 23% 2019-09-30
Arizona State Retirement System 62,569 82,158 24% 2019-09-30
RICE HALL JAMES & ASSOCIATES, LLC 60,542 58,927 3% 2019-09-30
MACKAY SHIELDS LLC 58,822 65,222 10% 2019-09-30
Allianz Asset Management AG 56,781 140,372 60% 2019-09-30
GSA CAPITAL PARTNERS LLP 52,594 0 New Buy 2019-09-30
STRS OHIO 52,200 50,800 3% 2019-09-30
NEW YORK STATE COMMON RETIREMENT FUND 51,900 51,900 No Change 2019-09-30
AlphaCrest Capital Management LLC 51,900 0 New Buy 2019-09-30
Weiss Multi-Strategy Advisers LLC 50,000 80,000 38% 2019-09-30
Municipal Employees' Retirement System of Michigan 48,950 48,760 0% 2019-09-30
GLOBEFLEX CAPITAL L P 48,207 20,353 137% 2019-09-30
Virtus ETF Advisers LLC 47,470 55,444 14% 2019-09-30
Foundry Partners, LLC 46,623 46,733 0% 2019-09-30
JEFFERIES GROUP INC /DE/ 44,856 0 New Buy 2019-09-30
A.R.T. Advisors, LLC 42,297 0 New Buy 2019-09-30
SYSTEMATIC FINANCIAL MANAGEMENT LP 42,295 66,815 37% 2019-09-30
THRIVENT FINANCIAL FOR LUTHERANS 42,281 41,300 2% 2019-09-30
ING INVESTMENT MANAGEMENT LLC 40,887 41,044 0% 2019-09-30
Alaska Retirement Management Board 40,866 18,030 127% 2019-09-30
State of Tennessee, Treasury Department 39,392 36,177 9% 2019-09-30
AMERICAN INTERNATIONAL GROUP INC 38,741 39,143 1% 2019-09-30
CREDIT SUISSE/ 37,977 48,127 21% 2019-09-30
TEXAS PERMANENT SCHOOL FUND 36,260 35,945 1% 2019-09-30
Quantitative Investment Management, LLC 35,097 37,350 6% 2019-09-30
STATE BOARD OF ADMINISTRATION OF FLORIDA RETIREMENT SYSTEM 34,654 34,654 No Change 2019-09-30
Laurion Capital Management LP 34,100 26,955 27% 2019-09-30
Teza Capital Management LLC 32,960 0 New Buy 2019-09-30
MANUFACTURERES LIFE INSURANCE CO 32,686 32,686 No Change 2019-09-30
Trexquant Investment LP 29,800 21,192 41% 2019-09-30
ALPS ADVISERS INC 26,782 20,284 32% 2019-09-30
NEW YORK STATE TEACHERS RETIREMENT SYSTEM 25,319 29,703 15% 2019-09-30
DUPONT CAPITAL MANAGEMENT 24,896 0 New Buy 2019-09-30
Engineers Gate Manager LP 24,609 23,610 4% 2019-09-30
MetLife Investment Advisors, LLC 24,336 24,336 No Change 2019-09-30
Winton Capital Group Ltd 22,954 0 New Buy 2019-09-30
ProShare Advisors LLC 21,678 22,420 3% 2019-09-30
OREGON PUBLIC EMPLOYEES RETIREMENT FUND 21,114 20,714 2% 2019-09-30
Louisiana State Employees Retirement System 19,700 19,700 No Change 2019-09-30
TEACHERS RETIREMENT SYSTEM OF THE STATE OF KENTUCKY 18,400 0 New Buy 2019-09-30
MASON STREET ADVISORS LLC 18,089 17,679 2% 2019-09-30
COMMONWEALTH OF PENNSYLVANIA PUBLIC SCHOOL EMPLS RETRMT SYS 18,070 18,140 0% 2019-09-30
METROPOLITAN LIFE INSURANCE CO/NY 17,187 0 New Buy 2019-09-30
Pacer Advisors, Inc. 16,125 9,809 64% 2019-09-30
Zebra Capital Management, LLC 15,634 0 New Buy 2019-09-30
ROYCE & ASSOCIATES LLC 14,286 0 New Buy 2019-09-30
South Dakota Investment Council 13,900 6,400 117% 2019-09-30
Dynamic Technology Lab Private Ltd 13,320 0 New Buy 2019-09-30
Xact Kapitalforvaltning AB 12,600 12,600 No Change 2019-09-30
Aperio Group, LLC 12,320 9,671 27% 2019-09-30
Meadow Creek Investment Management LLC 11,594 11,050 5% 2019-09-30
Quantamental Technologies LLC 11,013 6,957 58% 2019-09-30
CALTON & ASSOCIATES, INC. 10,924 0 New Buy 2019-09-30
ENVESTNET ASSET MANAGEMENT INC 10,796 10,352 4% 2019-09-30
VOLORIDGE INVESTMENT MANAGEMENT, LLC 10,368 57,793 82% 2019-09-30
Clarus Wealth Advisors 10,000 0 New Buy 2019-09-30
Elkfork Partners LLC 9,548 9,100 5% 2019-09-30
DekaBank Deutsche Girozentrale 8,600 17,200 50% 2019-09-30
VICTORY CAPITAL MANAGEMENT INC 8,106 2,864 183% 2019-09-30
Glen Harbor Capital Management LLC 7,502 7,150 5% 2019-09-30
US BANCORP DE 6,626 26,367 75% 2019-09-30
RIVERHEAD CAPITAL MANAGEMENT LLC 6,000 5,700 5% 2019-09-30
Pacad Investment Ltd. 5,797 3,199 81% 2019-09-30
Neuburgh Advisers LLC 5,456 5,200 5% 2019-09-30
MEEDER ASSET MANAGEMENT INC 5,215 300 1,638% 2019-09-30
North Star Investment Management Corp. 5,000 0 New Buy 2019-09-30
Financial Architects, Inc 5,000 5,000 No Change 2019-09-30
FIRST MERCANTILE TRUST CO 4,960 4,444 12% 2019-09-30
Summit Investment Advisors, Inc. 4,281 4,281 No Change 2019-09-30
Quantbot Technologies LLC 4,041 0 New Buy 2019-09-30
Zurcher Kantonalbank (Zurich Cantonalbank) 3,876 3,876 No Change 2019-09-30
LS Investment Advisors, LLC 3,786 3,786 No Change 2019-09-30
Advisor Group, Inc. 2,931 3,712 21% 2019-09-30
MUTUAL OF AMERICA CAPITAL MANAGEMENT CORP 1,965 1,898 4% 2019-09-30
ROYAL BANK OF CANADA 1,750 1,890 7% 2019-09-30
LAZARD ASSET MANAGEMENT LLC 1,296 0 New Buy 2019-09-30
GLENMEDE TRUST CO NA 1,067 426,726 100% 2019-09-30
GROUP ONE TRADING, L.P. 620 0 New Buy 2019-09-30
SPRINGBOK CAPITAL MANAGEMENT, LLC 540 946 43% 2019-09-30
Rockefeller Capital Management L.P. 535 570 6% 2019-09-30
Daiwa Securities Group Inc. 335 335 No Change 2019-09-30
Trust Co 250 0 New Buy 2019-09-30
FIRST MANHATTAN CO 100 100 No Change 2019-09-30
Compagnie Lombard, Odier SCA 100 100 No Change 2019-09-30
HARVEST GROUP WEALTH MANAGEMENT, LLC 86 0 New Buy 2019-09-30
BESSEMER GROUP INC 75 36 108% 2019-09-30
Parkside Financial Bank & Trust 73 73 No Change 2019-09-30
Cornerstone Advisors, Inc. 44 60 27% 2019-09-30
Private Capital Group, LLC 27 0 New Buy 2019-09-30
Steward Partners Investment Advisory, LLC 2 2 No Change 2019-09-30
Bowling Portfolio Management LLC 0 22,419 Sold Out 2019-09-30
ADAMS EXPRESS CO 0 3,000 Sold Out 2019-09-30
PUBLIC EMPLOYEES RETIREMENT SYSTEM OF OHIO 0 19,332 Sold Out 2019-09-30
SG Americas Securities, LLC 0 11,849 Sold Out 2019-09-30
O'SHAUGHNESSY ASSET MANAGEMENT, LLC 0 6,387 Sold Out 2019-09-30
UNITED SERVICES AUTOMOBILE ASSOCIATION 0 14,544 Sold Out 2019-09-30
NORTHWESTERN MUTUAL WEALTH MANAGEMENT CO 0 149 Sold Out 2019-09-30
BALYASNY ASSET MANAGEMENT LLC 0 20,197 Sold Out 2019-09-30
Consonance Capital Management LP 0 3,626,545 Sold Out 2019-09-30
Tower Research Capital LLC 0 1,454 Sold Out 2019-09-30
S.A.C. Capital Advisors (Hong Kong) Ltd. 0 58 Sold Out 2019-09-30
STIFEL FINANCIAL CORP 0 10,300 Sold Out 2019-09-30
Shanda Payment Holdings Ltd. 0 44,787 Sold Out 2019-09-30
Stonepine Capital Management, LLC 0 1,341,943 Sold Out 2019-09-30
SevenBridge Financial Group, LLC 0 275 Sold Out 2019-09-30
WOLVERINE TRADING, LLC 0 26,400 Sold Out 2019-09-30
Blueshift Asset Management, LLC 0 14,574 Sold Out 2019-09-30
WELD CAPITAL MANAGEMENT LLC 0 22,300 Sold Out 2019-09-30
Atom Investors LP 0 193,954 Sold Out 2019-09-30
Gotham Asset Management, LLC 35,553 44,282 20% 2019-06-30
AQR CAPITAL MANAGEMENT LLC 17,911 17,911 No Change 2019-06-30
Tibra Equities Europe Ltd 0 30,700 Sold Out 2019-06-30
*Data and information is provided for informational purposes only, and is not intended for trading purposes.*
*By accessing the Relationalstocks.com web site, a user agrees that RelationalStocks.com shall be not liable for any errors or delays in the content.*